createdAt,value
2022-08-17T00:01:31.487Z,5.50
2022-08-17T00:04:19.202Z,6.07
2022-08-17T00:06:49.036Z,6.15
2022-08-17T00:09:18.755Z,5.63
2022-08-17T00:12:42.054Z,5.60
2022-08-17T00:14:35.904Z,5.53
2022-08-17T00:17:04.583Z,5.57
2022-08-17T00:19:32.499Z,5.40
2022-08-17T00:22:32.178Z,5.00
2022-08-17T00:24:47.376Z,5.10
2022-08-17T00:27:13.897Z,5.65
2022-08-17T00:29:40.534Z,5.50
2022-08-17T00:33:10.813Z,6.00
2022-08-17T00:34:53.575Z,5.93
2022-08-17T00:37:20.057Z,5.78
2022-08-17T00:39:46.632Z,5.32
2022-08-17T00:42:16.121Z,5.72
2022-08-17T00:44:42.638Z,5.82
2022-08-17T00:47:09.149Z,6.13
2022-08-17T00:49:35.570Z,5.40
2022-08-17T00:52:12.052Z,5.53
2022-08-17T00:54:43.158Z,5.72
2022-08-17T00:57:31.931Z,5.95
2022-08-17T01:00:12.681Z,5.88
2022-08-17T01:02:43.859Z,5.75
2022-08-17T01:05:18.941Z,5.70
2022-08-17T01:07:47.843Z,5.80
2022-08-17T01:10:57.609Z,5.68
2022-08-17T01:13:03.620Z,5.57
2022-08-17T01:15:34.319Z,6.03
2022-08-17T01:18:00.853Z,5.82
2022-08-17T01:20:27.546Z,5.75
2022-08-17T01:22:54.185Z,5.72
2022-08-17T01:25:21.418Z,5.45
2022-08-17T01:27:48.901Z,5.60
2022-08-17T01:30:56.628Z,6.00
2022-08-17T01:33:04.257Z,6.38
2022-08-17T01:35:30.837Z,6.65
2022-08-17T01:37:57.281Z,6.65
2022-08-17T01:40:33.517Z,6.22
2022-08-17T01:43:07.230Z,6.82
2022-08-17T01:45:40.824Z,6.03
2022-08-17T01:48:08.008Z,6.40
2022-08-17T01:50:37.807Z,5.85
2022-08-17T01:53:07.844Z,6.88
2022-08-17T01:55:47.220Z,6.32
2022-08-17T01:58:13.846Z,5.95
2022-08-17T02:00:59.464Z,6.20
2022-08-17T02:03:27.651Z,6.97
2022-08-17T02:05:54.242Z,5.85
2022-08-17T02:08:38.690Z,6.10
2022-08-17T02:11:15.616Z,6.25
2022-08-17T02:13:43.684Z,6.85
2022-08-17T02:16:10.414Z,6.95
2022-08-17T02:18:37.270Z,6.68
2022-08-17T02:21:04.838Z,7.07
2022-08-17T02:23:36.220Z,6.18
2022-08-17T02:26:02.668Z,6.65
2022-08-17T02:28:29.187Z,6.70
2022-08-17T02:31:00.836Z,6.78
2022-08-17T02:33:43.275Z,6.90
2022-08-17T02:36:12.589Z,7.00
2022-08-17T02:38:40.515Z,6.38
2022-08-17T02:41:07.570Z,7.00
2022-08-17T02:43:34.834Z,6.50
2022-08-17T02:46:01.547Z,6.72
2022-08-17T02:48:30.992Z,7.13
2022-08-17T02:50:58.530Z,7.43
2022-08-17T02:53:25.777Z,7.13
2022-08-17T02:55:52.760Z,7.15
2022-08-17T02:58:34.732Z,7.15
2022-08-17T03:01:05.099Z,7.45
2022-08-17T03:03:32.235Z,7.38
2022-08-17T03:05:58.781Z,7.20
2022-08-17T03:08:25.461Z,6.72
2022-08-17T03:10:52.243Z,6.88
2022-08-17T03:13:19.236Z,7.68
2022-08-17T03:15:46.690Z,7.28
2022-08-17T03:18:19.075Z,7.43
2022-08-17T03:20:58.092Z,7.28
2022-08-17T03:23:26.233Z,7.05
2022-08-17T03:25:54.682Z,7.97
2022-08-17T03:28:22.540Z,7.53
2022-08-17T03:30:50.894Z,7.40
2022-08-17T03:33:17.616Z,7.25
2022-08-17T03:35:44.159Z,7.43
2022-08-17T03:38:12.033Z,7.22
2022-08-17T03:40:58.155Z,7.47
2022-08-17T03:43:27.511Z,7.72
2022-08-17T03:46:26.917Z,7.03
2022-08-17T03:49:13.831Z,7.28
2022-08-17T03:51:58.798Z,7.75
2022-08-17T03:54:43.831Z,7.43
2022-08-17T03:57:12.362Z,7.80
2022-08-17T03:59:41.019Z,7.75
2022-08-17T04:02:15.530Z,7.45
2022-08-17T04:04:41.945Z,7.50
2022-08-17T04:07:08.889Z,7.85
2022-08-17T04:09:36.400Z,8.13
2022-08-17T04:12:05.060Z,7.63
2022-08-17T04:14:39.188Z,8.27
2022-08-17T04:17:24.904Z,7.60
2022-08-17T04:19:51.742Z,7.68
2022-08-17T04:22:30.070Z,7.32
2022-08-17T04:25:03.677Z,7.43
2022-08-17T04:27:30.162Z,7.95
2022-08-17T04:29:56.591Z,7.55
2022-08-17T04:33:05.011Z,7.57
2022-08-17T04:35:09.902Z,8.02
2022-08-17T04:37:36.387Z,7.72
2022-08-17T04:40:22.423Z,8.00
2022-08-17T04:43:04.216Z,8.38
2022-08-17T04:45:31.255Z,8.45
2022-08-17T04:47:59.546Z,7.95
2022-08-17T04:50:26.093Z,7.78
2022-08-17T04:52:52.693Z,8.23
2022-08-17T04:55:19.319Z,7.47
2022-08-17T04:57:45.806Z,7.82
2022-08-17T05:00:12.700Z,8.13
2022-08-17T05:02:50.608Z,6.93
2022-08-17T05:05:20.173Z,8.00
2022-08-17T05:07:47.695Z,7.07
2022-08-17T05:10:14.152Z,6.95
2022-08-17T05:12:40.805Z,6.65
2022-08-17T05:15:12.550Z,7.75
2022-08-17T05:17:39.117Z,6.75
2022-08-17T05:20:06.128Z,6.82
2022-08-17T05:22:32.576Z,5.75
2022-08-17T05:24:59.054Z,6.00
2022-08-17T05:27:30.837Z,5.45
2022-08-17T05:30:02.122Z,5.60
2022-08-17T05:32:39.006Z,5.90
2022-08-17T05:35:07.069Z,5.65
2022-08-17T05:37:33.511Z,5.22
2022-08-17T05:40:00.071Z,5.28
2022-08-17T05:42:26.609Z,4.53
2022-08-17T05:44:53.208Z,5.18
2022-08-17T05:47:21.949Z,4.63
2022-08-17T05:49:49.011Z,4.55
2022-08-17T05:52:23.589Z,4.20
2022-08-17T05:54:59.118Z,5.10
2022-08-17T05:57:53.654Z,4.50
2022-08-17T06:00:42.982Z,4.32
2022-08-17T06:03:25.239Z,4.88
2022-08-17T06:05:57.445Z,4.35
2022-08-17T06:08:33.452Z,4.85
2022-08-17T06:11:22.693Z,5.03
2022-08-17T06:13:49.196Z,4.97
2022-08-17T06:16:33.359Z,4.50
2022-08-17T06:19:14.477Z,3.80
2022-08-17T06:21:44.092Z,4.20
2022-08-17T06:24:16.266Z,4.30
2022-08-17T06:26:45.433Z,4.43
2022-08-17T06:29:35.309Z,4.25
2022-08-17T06:32:02.597Z,4.07
2022-08-17T06:34:29.807Z,4.10
2022-08-17T06:37:28.911Z,3.95
2022-08-17T06:40:40.211Z,4.15
2022-08-17T06:43:34.339Z,3.95
2022-08-17T06:46:13.313Z,4.40
2022-08-17T06:48:46.889Z,3.67
2022-08-17T06:51:27.260Z,3.85
2022-08-17T06:54:15.164Z,4.72
2022-08-17T06:56:53.458Z,4.85
2022-08-17T06:59:55.843Z,3.67
2022-08-17T07:02:53.001Z,5.20
2022-08-17T07:05:51.327Z,4.65
2022-08-17T07:08:35.195Z,4.88
2022-08-17T07:11:13.637Z,4.63
2022-08-17T07:14:17.461Z,5.22
2022-08-17T07:19:17.184Z,5.45
2022-08-17T07:22:05.416Z,5.60
2022-08-17T07:24:47.317Z,5.25
2022-08-17T07:27:20.789Z,5.47
2022-08-17T07:30:04.692Z,5.95
2022-08-17T07:32:42.961Z,5.97
2022-08-17T07:35:12.819Z,6.55
2022-08-17T07:37:53.019Z,6.72
2022-08-17T07:40:34.461Z,7.05
2022-08-17T07:43:05.142Z,6.63
2022-08-17T07:45:51.083Z,7.47
2022-08-17T07:48:21.467Z,9.52
2022-08-17T07:50:49.561Z,8.52
2022-08-17T07:53:20.622Z,7.60
2022-08-17T07:55:47.636Z,7.63
2022-08-17T07:58:20.207Z,8.32
2022-08-17T08:00:46.716Z,10.82
2022-08-17T08:03:28.478Z,10.13
2022-08-17T08:06:00.068Z,8.65
2022-08-17T08:08:29.030Z,8.02
2022-08-17T08:11:06.126Z,8.15
2022-08-17T08:13:33.834Z,8.48
2022-08-17T08:16:26.946Z,9.63
2022-08-17T08:18:59.603Z,7.97
2022-08-17T08:21:53.474Z,12.82
2022-08-17T08:24:52.126Z,9.15
2022-08-17T08:27:27.405Z,8.82
2022-08-17T08:30:04.873Z,9.75
2022-08-17T08:32:53.913Z,9.13
2022-08-17T08:35:37.994Z,10.07
2022-08-17T08:38:42.527Z,9.38
2022-08-17T08:41:36.732Z,9.20
2022-08-17T08:44:13.197Z,10.15
2022-08-17T08:46:45.741Z,8.73
2022-08-17T08:50:02.549Z,9.15
2022-08-17T08:52:48.031Z,10.35
2022-08-17T08:55:36.710Z,9.82
2022-08-17T08:58:31.455Z,8.80
2022-08-17T09:00:59.334Z,9.65
2022-08-17T09:03:53.368Z,9.50
2022-08-17T09:06:39.389Z,9.82
2022-08-17T09:09:21.573Z,9.88
2022-08-17T09:12:13.834Z,11.23
2022-08-17T09:15:13.276Z,9.65
2022-08-17T09:18:59.158Z,10.75
2022-08-17T09:21:22.393Z,9.40
2022-08-17T09:24:00.107Z,10.25
2022-08-17T09:26:53.802Z,9.00
2022-08-17T09:29:25.318Z,9.75
2022-08-17T09:31:59.527Z,9.18
2022-08-17T09:34:43.531Z,10.35
2022-08-17T09:37:32.767Z,11.70
2022-08-17T09:40:25.834Z,11.27
2022-08-17T09:43:16.993Z,10.90
2022-08-17T09:45:52.037Z,11.63
2022-08-17T09:48:27.501Z,10.75
2022-08-17T09:51:20.068Z,15.13
2022-08-17T09:53:46.892Z,11.23
2022-08-17T09:56:35.277Z,13.13
2022-08-17T09:59:21.224Z,15.85
2022-08-17T10:02:00.837Z,11.45
2022-08-17T10:04:49.834Z,16.40
2022-08-17T10:07:28.721Z,13.57
2022-08-17T10:10:29.660Z,16.42
2022-08-17T10:16:07.720Z,13.38
2022-08-17T10:18:49.400Z,14.10
2022-08-17T10:21:37.608Z,15.20
2022-08-17T10:24:33.141Z,17.17
2022-08-17T10:27:02.830Z,15.45
2022-08-17T10:29:49.021Z,17.33
2022-08-17T10:32:27.501Z,15.95
2022-08-17T10:35:20.001Z,18.90
2022-08-17T10:37:59.148Z,16.70
2022-08-17T10:40:54.225Z,18.92
2022-08-17T10:44:36.563Z,17.42
2022-08-17T10:46:57.357Z,16.75
2022-08-17T10:49:32.608Z,17.77
2022-08-17T10:52:02.314Z,19.30
2022-08-17T10:54:39.544Z,18.67
2022-08-17T10:57:29.009Z,17.63
2022-08-17T10:59:57.258Z,18.13
2022-08-17T11:02:49.187Z,19.20
2022-08-17T11:05:50.163Z,18.38
2022-08-17T11:08:45.762Z,21.88
2022-08-17T11:11:38.897Z,17.08
2022-08-17T11:14:27.149Z,19.40
2022-08-17T11:17:22.874Z,17.90
2022-08-17T11:20:17.571Z,16.05
2022-08-17T11:23:06.036Z,20.05
2022-08-17T11:25:47.819Z,26.60
2022-08-17T11:28:19.176Z,29.23
2022-08-17T11:30:53.757Z,26.25
2022-08-17T11:33:29.530Z,23.50
2022-08-17T11:36:19.849Z,28.10
2022-08-17T11:38:57.739Z,23.95
2022-08-17T11:41:54.426Z,25.70
2022-08-17T11:44:45.439Z,27.27
2022-08-17T11:47:41.778Z,26.20
2022-08-17T11:50:39.028Z,26.75
2022-08-17T11:53:06.022Z,28.40
2022-08-17T11:55:39.638Z,25.90
2022-08-17T11:58:27.512Z,28.83
2022-08-17T12:00:59.590Z,32.53
2022-08-17T12:03:32.077Z,40.35
2022-08-17T12:06:17.566Z,31.10
2022-08-17T12:08:52.042Z,34.28
2022-08-17T12:11:56.393Z,33.08
2022-08-17T12:14:51.692Z,31.92
2022-08-17T12:17:41.183Z,32.42
2022-08-17T12:20:37.086Z,31.65
2022-08-17T12:23:16.053Z,32.55
2022-08-17T12:25:57.434Z,32.80
2022-08-17T12:28:31.810Z,32.63
2022-08-17T12:31:04.558Z,32.38
2022-08-17T12:33:31.542Z,31.35
2022-08-17T12:36:02.979Z,34.42
2022-08-17T12:38:35.099Z,35.20
2022-08-17T12:41:24.540Z,41.00
2022-08-17T12:44:11.836Z,40.22
2022-08-17T12:46:50.409Z,30.02
2022-08-17T12:49:28.180Z,29.75
2022-08-17T12:52:13.935Z,29.73
2022-08-17T12:54:55.338Z,27.65
2022-08-17T12:57:26.420Z,27.80
2022-08-17T13:00:21.699Z,29.25
2022-08-17T13:02:52.286Z,25.70
2022-08-17T13:05:28.635Z,25.48
2022-08-17T13:07:58.733Z,21.83
2022-08-17T13:10:34.371Z,26.15
2022-08-17T13:13:17.540Z,22.30
2022-08-17T13:16:03.039Z,20.92
2022-08-17T13:19:07.082Z,34.28
2022-08-17T13:21:35.347Z,22.98
2022-08-17T13:24:10.959Z,21.50
2022-08-17T13:26:46.288Z,20.13
2022-08-17T13:29:23.826Z,34.90
2022-08-17T13:32:03.866Z,19.92
2022-08-17T13:35:08.308Z,29.05
2022-08-17T13:37:36.196Z,19.13
2022-08-17T13:40:11.669Z,26.30
2022-08-17T13:42:54.161Z,23.98
2022-08-17T13:45:35.651Z,24.55
2022-08-17T13:48:11.826Z,22.90
2022-08-17T13:50:55.548Z,32.38
2022-08-17T13:53:23.471Z,35.00
2022-08-17T13:55:56.330Z,26.35
2022-08-17T13:58:26.985Z,22.95
2022-08-17T14:00:53.781Z,26.92
2022-08-17T14:03:20.761Z,24.17
2022-08-17T14:05:48.581Z,25.10
2022-08-17T14:08:16.761Z,22.73
2022-08-17T14:10:45.192Z,25.13
2022-08-17T14:13:15.070Z,31.90
2022-08-17T14:15:54.513Z,29.20
2022-08-17T14:18:55.722Z,23.40
2022-08-17T14:21:09.994Z,23.15
2022-08-17T14:23:37.484Z,25.63
2022-08-17T14:26:04.829Z,26.17
2022-08-17T14:28:32.036Z,22.67
2022-08-17T14:31:00.692Z,21.67
2022-08-17T14:33:28.844Z,28.17
2022-08-17T14:35:55.831Z,22.58
2022-08-17T14:38:22.320Z,21.60
2022-08-17T14:40:49.088Z,22.08
2022-08-17T14:43:15.731Z,20.95
2022-08-17T14:45:42.936Z,18.70
2022-08-17T14:48:10.492Z,19.38
2022-08-17T14:50:40.628Z,19.40
2022-08-17T14:53:09.633Z,17.83
2022-08-17T14:55:39.637Z,18.27
2022-08-17T14:58:07.365Z,17.60
2022-08-17T15:00:34.026Z,18.40
2022-08-17T15:03:02.000Z,19.13
2022-08-17T15:05:33.361Z,20.40
2022-08-17T15:08:01.118Z,19.33
2022-08-17T15:10:29.344Z,18.90
2022-08-17T15:12:56.261Z,19.92
2022-08-17T15:15:23.637Z,19.83
2022-08-17T15:17:51.259Z,19.30
2022-08-17T15:20:20.909Z,17.20
2022-08-17T15:22:55.216Z,19.92
2022-08-17T15:25:22.866Z,21.60
2022-08-17T15:27:49.647Z,20.83
2022-08-17T15:30:17.115Z,23.55
2022-08-17T15:32:51.263Z,19.85
2022-08-17T15:35:28.136Z,25.20
2022-08-17T15:37:57.810Z,24.88
2022-08-17T15:40:25.042Z,21.90
2022-08-17T15:42:52.572Z,21.73
2022-08-17T15:45:22.471Z,22.45
2022-08-17T15:47:48.951Z,26.38
2022-08-17T15:50:15.440Z,23.70
2022-08-17T15:52:44.748Z,29.65
2022-08-17T15:55:17.884Z,21.52
2022-08-17T15:57:46.225Z,21.95
2022-08-17T16:00:13.044Z,21.05
2022-08-17T16:03:45.181Z,27.92
2022-08-17T16:05:31.258Z,20.58
2022-08-17T16:07:59.429Z,20.63
2022-08-17T16:10:34.704Z,20.98
2022-08-17T16:13:02.558Z,22.65
2022-08-17T16:15:31.153Z,20.67
2022-08-17T16:17:57.664Z,22.08
2022-08-17T16:20:24.118Z,22.83
2022-08-17T16:22:50.779Z,20.73
2022-08-17T16:25:38.299Z,21.40
2022-08-17T16:28:12.178Z,21.42
2022-08-17T16:30:38.766Z,22.58
2022-08-17T16:33:05.473Z,21.38
2022-08-17T16:35:31.964Z,21.85
2022-08-17T16:37:58.728Z,21.27
2022-08-17T16:40:27.644Z,21.50
2022-08-17T16:42:55.244Z,21.15
2022-08-17T16:45:40.059Z,28.23
2022-08-17T16:48:07.929Z,20.70
2022-08-17T16:50:34.662Z,21.45
2022-08-17T16:53:17.734Z,21.13
2022-08-17T16:55:45.836Z,20.15
2022-08-17T16:58:12.387Z,19.75
2022-08-17T17:00:39.401Z,18.67
2022-08-17T17:03:22.053Z,18.05
2022-08-17T17:05:55.126Z,19.20
2022-08-17T17:08:26.573Z,19.30
2022-08-17T17:10:56.232Z,18.88
2022-08-17T17:13:47.105Z,18.67
2022-08-17T17:16:28.756Z,18.48
2022-08-17T17:19:14.869Z,18.02
2022-08-17T17:22:00.053Z,18.58
2022-08-17T17:24:41.372Z,17.45
2022-08-17T17:27:23.399Z,16.85
2022-08-17T17:30:12.214Z,16.65
2022-08-17T17:32:50.632Z,16.85
2022-08-17T17:35:24.251Z,16.25
2022-08-17T17:37:53.945Z,16.98
2022-08-17T17:40:29.071Z,16.55
2022-08-17T17:43:09.461Z,16.23
2022-08-17T17:46:27.797Z,17.42
2022-08-17T17:48:56.636Z,16.25
2022-08-17T17:52:07.657Z,17.10
2022-08-17T17:54:36.882Z,18.10
2022-08-17T17:57:10.904Z,18.73
2022-08-17T17:59:52.599Z,18.58
2022-08-17T18:02:47.361Z,18.60
2022-08-17T18:05:36.986Z,17.30
2022-08-17T18:08:41.813Z,18.13
2022-08-17T18:11:25.027Z,15.68
2022-08-17T18:14:14.225Z,13.13
2022-08-17T18:16:42.656Z,13.32
2022-08-17T18:19:14.968Z,13.02
2022-08-17T18:21:46.248Z,13.30
2022-08-17T18:24:13.687Z,14.68
2022-08-17T18:26:40.192Z,14.73
2022-08-17T18:29:13.933Z,14.73
2022-08-17T18:31:40.439Z,14.70
2022-08-17T18:34:48.946Z,14.43
2022-08-17T18:37:33.748Z,14.20
2022-08-17T18:40:20.145Z,14.48
2022-08-17T18:43:44.400Z,14.85
2022-08-17T18:46:29.502Z,17.05
2022-08-17T18:49:00.709Z,15.50
2022-08-17T18:51:43.328Z,15.45
2022-08-17T18:54:20.940Z,14.55
2022-08-17T18:56:58.740Z,17.88
2022-08-17T18:59:39.665Z,14.23
2022-08-17T19:02:20.575Z,14.57
2022-08-17T19:05:00.892Z,14.90
2022-08-17T19:07:42.169Z,17.90
2022-08-17T19:10:46.668Z,16.15
2022-08-17T19:13:24.584Z,16.67
2022-08-17T19:16:13.082Z,16.85
2022-08-17T19:18:50.840Z,17.23
2022-08-17T19:21:23.835Z,16.67
2022-08-17T19:23:54.576Z,16.58
2022-08-17T19:26:55.209Z,15.90
2022-08-17T19:29:22.417Z,16.67
2022-08-17T19:31:49.842Z,16.33
2022-08-17T19:34:17.628Z,15.30
2022-08-17T19:37:06.737Z,17.27
2022-08-17T19:39:50.651Z,17.20
2022-08-17T19:42:49.735Z,16.42
2022-08-17T19:45:32.555Z,17.33
2022-08-17T19:48:32.176Z,18.73
2022-08-17T19:51:05.728Z,16.85
2022-08-17T19:54:03.777Z,15.85
2022-08-17T19:56:56.664Z,15.23
2022-08-17T19:59:39.333Z,17.77
2022-08-17T20:02:34.885Z,18.23
2022-08-17T20:05:13.313Z,18.33
2022-08-17T20:08:04.465Z,17.92
2022-08-17T20:10:45.221Z,18.48
2022-08-17T20:13:33.187Z,16.98
2022-08-17T20:16:01.054Z,17.92
2022-08-17T20:19:06.728Z,17.25
2022-08-17T20:21:53.217Z,18.10
2022-08-17T20:24:39.693Z,19.52
2022-08-17T20:27:11.914Z,18.85
2022-08-17T20:30:03.343Z,20.00
2022-08-17T20:32:35.312Z,20.58
2022-08-17T20:35:26.803Z,21.05
2022-08-17T20:37:57.540Z,20.00
2022-08-17T20:40:31.580Z,19.95
2022-08-17T20:42:58.884Z,20.67
2022-08-17T20:45:25.944Z,21.40
2022-08-17T20:48:36.152Z,23.25
2022-08-17T20:51:15.110Z,29.15
2022-08-17T20:53:47.689Z,29.17
2022-08-17T20:56:42.949Z,27.80
2022-08-17T20:59:25.572Z,27.80
2022-08-17T21:02:17.594Z,26.58
2022-08-17T21:05:00.133Z,27.85
2022-08-17T21:07:33.149Z,29.38
2022-08-17T21:10:21.580Z,34.83
2022-08-17T21:12:53.209Z,39.70
2022-08-17T21:15:42.276Z,35.92
2022-08-17T21:18:50.696Z,32.67
2022-08-17T21:21:39.332Z,34.22
2022-08-17T21:24:30.005Z,34.58
2022-08-17T21:27:23.934Z,36.72
2022-08-17T21:30:06.621Z,36.25
2022-08-17T21:32:41.177Z,34.67
2022-08-17T21:35:12.311Z,35.08
2022-08-17T21:37:38.895Z,35.22
2022-08-17T21:40:18.099Z,43.15
2022-08-17T21:43:18.699Z,38.03
2022-08-17T21:45:55.355Z,36.67
2022-08-17T21:48:24.817Z,39.58
2022-08-17T21:51:18.209Z,43.60
2022-08-17T21:53:47.382Z,38.15
2022-08-17T21:56:34.314Z,39.67
2022-08-17T21:59:07.823Z,42.30
2022-08-17T22:01:37.233Z,39.92
2022-08-17T22:04:17.775Z,38.08
2022-08-17T22:06:56.654Z,36.35
2022-08-17T22:09:45.381Z,44.88
2022-08-17T22:12:19.819Z,38.92
2022-08-17T22:14:57.782Z,38.92
2022-08-17T22:17:34.320Z,35.17
2022-08-17T22:20:08.459Z,32.70
2022-08-17T22:22:56.950Z,38.03
2022-08-17T22:25:25.639Z,36.92
2022-08-17T22:27:58.475Z,37.03
2022-08-17T22:30:29.598Z,37.63
2022-08-17T22:32:57.512Z,33.60
2022-08-17T22:35:42.926Z,33.60
2022-08-17T22:38:18.594Z,30.58
2022-08-17T22:41:15.020Z,31.85
2022-08-17T22:43:44.702Z,33.20
2022-08-17T22:46:12.404Z,30.73
2022-08-17T22:48:50.414Z,32.65
2022-08-17T22:51:23.287Z,35.50
2022-08-17T22:54:12.191Z,31.30
2022-08-17T22:57:06.228Z,31.85
2022-08-17T22:59:41.734Z,33.30
2022-08-17T23:02:24.545Z,32.70
2022-08-17T23:05:16.674Z,33.22
2022-08-17T23:07:45.377Z,32.22
2022-08-17T23:10:13.247Z,34.13
2022-08-17T23:12:40.057Z,34.28
2022-08-17T23:15:15.102Z,32.28
2022-08-17T23:17:42.013Z,33.58
2022-08-17T23:20:12.508Z,31.77
2022-08-17T23:22:51.352Z,33.17
2022-08-17T23:25:27.925Z,29.88
2022-08-17T23:27:55.603Z,34.28
2022-08-17T23:30:25.265Z,32.00
2022-08-17T23:32:54.312Z,36.60
2022-08-17T23:35:38.873Z,35.42
2022-08-17T23:38:07.459Z,37.88
2022-08-17T23:40:34.410Z,41.75
2022-08-17T23:43:00.853Z,42.13
2022-08-17T23:45:32.506Z,41.83
2022-08-17T23:47:58.899Z,40.72
2022-08-17T23:50:25.457Z,42.13
2022-08-17T23:52:57.516Z,43.33
2022-08-17T23:55:23.928Z,42.22
2022-08-17T23:57:50.635Z,40.60
